Home > Products > Valid Products > MTR

000
SAUS44 KMAF 271154
MTR6R6
METAR K6R6 271153Z AUTO 30005KT 13/02 A2977 RMK AO1 SLP047 T01280017
10211 20128 53005





000
SAUS44 KMAF 271054
MTR6R6
METAR K6R6 271053Z AUTO 28007KT 13/02 A2975 RMK AO1 SLP041 T01330017





000
SAUS44 KMAF 270954
MTR6R6
METAR K6R6 270953Z AUTO 32007KT 16/01 A2976 RMK AO1 SLP040 T01560011





000
SAUS44 KMAF 270954
MTR6R6
METAR K6R6 270953Z AUTO 32007KT 16/01 A2976 RMK AO1 SLP040 T01560011





000
SAUS44 KMAF 270854
MTR6R6
METAR K6R6 270853Z AUTO 33006KT 16/01 A2975 RMK AO1 SLP038 T01610006
58001





000
SAUS44 KMAF 270854
MTR6R6
METAR K6R6 270853Z AUTO 33006KT 16/01 A2975 RMK AO1 SLP038 T01610006
58001





000
SAUS44 KMAF 270754
MTR6R6
METAR K6R6 270753Z AUTO 31008KT 19/M01 A2976 RMK AO1 SLP040
T01891006





000
SAUS44 KMAF 270654
MTR6R6
METAR K6R6 270653Z AUTO 31011KT 20/M01 A2975 RMK AO1 SLP037
T02001011





000
SAUS44 KMAF 270654
MTR6R6
METAR K6R6 270653Z AUTO 31011KT 20/M01 A2975 RMK AO1 SLP037
T02001011





000
SAUS44 KMAF 270603 COR
MTR6R6
METAR K6R6 270553Z AUTO 33008KT 20/M02 A2975 RMK AO1 PK WND
30031/0454 SLP037 T02001017 10339 20200 403560144 51034





000
SAUS44 KMAF 270603 COR
MTR6R6
METAR K6R6 270553Z AUTO 33008KT 20/M02 A2975 RMK AO1 PK WND
30031/0454 SLP037 T02001017 10339 20200 403560144 51034





000
SAUS44 KMAF 270602 COR
MTR6R6
METAR K6R6 270553Z AUTO 33008KT 20/M02 A2975 RMK AO1 PK WND
30031/0454 SLP037 T02001017 10339 20200 403560144 51034





000
SAUS44 KMAF 270602 COR
MTR6R6
METAR K6R6 270553Z AUTO 33008KT 20/M02 A2975 RMK AO1 PK WND
30031/0454 SLP037 T02001017 10339 20200 403560144 51034





000
SAUS44 KMAF 270601 COR
MTR6R6
METAR K6R6 270553Z AUTO 33008KT 20/M02 A2975 RMK AO1 PK WND
30031/0454 SLP037 T02001017 10339 20200 403560144 51034





000
SAUS44 KMAF 270601 COR
MTR6R6
METAR K6R6 270553Z AUTO 33008KT 20/M02 A2975 RMK AO1 PK WND
30031/0454 SLP037 T02001017 10339 20200 403560144 51034





000
SAUS44 KMAF 270559 COR
MTR6R6
METAR K6R6 270553Z AUTO 33008KT 20/M02 A2975 RMK AO1 PK WND
30031/0454 SLP037 T02001017 10339 20200 403560144 51034





000
SAUS44 KMAF 270559 COR
MTR6R6
METAR K6R6 270553Z AUTO 33008KT 20/M02 A2975 RMK AO1 PK WND
30031/0454 SLP037 T02001017 10339 20200 403560144 51034





000
SAUS44 KMAF 270558 COR
MTR6R6
METAR K6R6 270553Z AUTO 33008KT 20/M02 A2975 RMK AO1 PK WND
30031/0454 SLP037 T02001017 10339 20200 403560144 51034





000
SAUS44 KMAF 270557 COR
MTR6R6
METAR K6R6 270553Z AUTO 33008KT 20/M02 A2975 RMK AO1 PK WND
30031/0454 SLP037 T02001017 10339 20200 403560144 51034





000
SAUS44 KMAF 270556 COR
MTR6R6
METAR K6R6 270553Z AUTO 33008KT 20/M02 A2975 RMK AO1 PK WND
30031/0454 SLP037 T02001017 10339 20200 403560144 51034





000
SAUS44 KMAF 270555 COR
MTR6R6
METAR K6R6 270553Z AUTO 33008KT 20/M02 A2975 RMK AO1 PK WND
30031/0454 SLP037 T02001017 10339 20200 403560144 51034





000
SAUS44 KMAF 270554
MTR6R6
METAR K6R6 270553Z AUTO 33008KT 20/M02 A2975 RMK AO1 PK WND
30031/0454 SLP037 T02001017 10339 20200 403560144 51034





000
SAUS44 KMAF 270454
MTR6R6
METAR K6R6 270453Z AUTO 31023G32KT 23/M02 A2970 RMK AO1 PK WND
31035/0439 SLP020 T02281022





000
SAUS44 KMAF 270354
MTR6R6
METAR K6R6 270353Z AUTO 34014G25KT 23/M03 A2970 RMK AO1 SLP018
T02331033





000
SAUS44 KMAF 270254
MTR6R6
METAR K6R6 270253Z AUTO 34015G22KT 24/M03 A2964 RMK AO1 PK WND
35029/0205 SLP003 T02391028 51054





000
SAUS44 KMAF 270254
MTR6R6
METAR K6R6 270253Z AUTO 34015G22KT 24/M03 A2964 RMK AO1 PK WND
35029/0205 SLP003 T02391028 51054





000
SAUS44 KMAF 270155
MTR6R6
METAR K6R6 270153Z AUTO 35016G24KT 25/M01 A2961 RMK AO1 PK WND
33035/0104 PRESRR SLP993 T02501006





000
SAUS44 KMAF 270155
MTR6R6
METAR K6R6 270153Z AUTO 35016G24KT 25/M01 A2961 RMK AO1 PK WND
33035/0104 PRESRR SLP993 T02501006





000
SAUS44 KMAF 270054
MTR6R6
METAR K6R6 270053Z AUTO 34025G38KT 26/M01 A2953 RMK AO1 PK WND
33039/0028 PRESRR SLP966 T02611006





000
SAUS44 KMAF 270054
MTR6R6
METAR K6R6 270053Z AUTO 34025G38KT 26/M01 A2953 RMK AO1 PK WND
33039/0028 PRESRR SLP966 T02611006





000
SAUS44 KMAF 262354
MTR6R6
METAR K6R6 262353Z AUTO 29010KT 34/M11 A2948 RMK AO1 SLP945
T03391106 10356 20328 56021





000
SAUS44 KMAF 262354
MTR6R6
METAR K6R6 262353Z AUTO 29010KT 34/M11 A2948 RMK AO1 SLP945
T03391106 10356 20328 56021





000
SAUS44 KMAF 262254
MTR6R6
METAR K6R6 262253Z AUTO 24018G28KT 35/M11 A2949 RMK AO1 PK WND
24028/2245 SLP945 T03501111





000
SAUS44 KMAF 262254
MTR6R6
METAR K6R6 262253Z AUTO 24018G28KT 35/M11 A2949 RMK AO1 PK WND
24028/2245 SLP945 T03501111





000
SAUS44 KMAF 262154
MTR6R6
METAR K6R6 262153Z AUTO 22019G27KT 35/M08 A2951 RMK AO1 PK WND
20029/2127 SLP952 T03501078





000
SAUS44 KMAF 262054
MTR6R6
METAR K6R6 262053Z AUTO 21014G20KT 35/M09 A2954 RMK AO1 PK WND
21028/2012 SLP964 T03501089 58027





000
SAUS44 KMAF 262054
MTR6R6
METAR K6R6 262053Z AUTO 21014G20KT 35/M09 A2954 RMK AO1 PK WND
21028/2012 SLP964 T03501089 58027





000
SAUS44 KMAF 261954
MTR6R6
METAR K6R6 261953Z AUTO 23011G23KT 34/M09 A2957 RMK AO1 PK WND
23027/1903 SLP975 T03391094





000
SAUS44 KMAF 261854
MTR6R6
METAR K6R6 261853Z AUTO 21018G24KT 34/M09 A2960 RMK AO1 PK WND
22028/1757 SLP986 T03391094





000
SAUS44 KMAF 261854
MTR6R6
METAR K6R6 261853Z AUTO 21018G24KT 34/M09 A2960 RMK AO1 PK WND
22028/1757 SLP986 T03391094





000
SAUS44 KMAF 261754
MTR6R6
METAR K6R6 261753Z AUTO 22015G22KT 33/M06 A2963 RMK AO1 SLP994
T03331056 10333 20144 58027





000
SAUS44 KMAF 261754
MTR6R6
METAR K6R6 261753Z AUTO 22015G22KT 33/M06 A2963 RMK AO1 SLP994
T03331056 10333 20144 58027





000
SAUS44 KMAF 261708 COR
MTRGDP
METAR KGDP 261651Z AUTO 24026G34KT 10SM OVC110 18/M04 A2979 RMK AO2
PK WND 25034/1650 SLP022 T01831044 $





000
SAUS44 KMAF 261708 COR
MTRGDP
METAR KGDP 261651Z AUTO 24026G34KT 10SM OVC110 18/M04 A2979 RMK AO2
PK WND 25034/1650 SLP022 T01831044 $





000
SAUS44 KMAF 261706 COR
MTRGDP
METAR KGDP 261651Z AUTO 24026G34KT 10SM OVC110 18/M04 A2979 RMK AO2
PK WND 25034/1650 SLP022 T01831044 $





000
SAUS44 KMAF 261706 COR
MTRGDP
METAR KGDP 261651Z AUTO 24026G34KT 10SM OVC110 18/M04 A2979 RMK AO2
PK WND 25034/1650 SLP022 T01831044 $





000
SAUS44 KMAF 261705 COR
MTRGDP
METAR KGDP 261651Z AUTO 24026G34KT 10SM OVC110 18/M04 A2979 RMK AO2
PK WND 25034/1650 SLP022 T01831044 $





000
SAUS44 KMAF 261705 COR
MTRGDP
METAR KGDP 261651Z AUTO 24026G34KT 10SM OVC110 18/M04 A2979 RMK AO2
PK WND 25034/1650 SLP022 T01831044 $





000
SAUS44 KMAF 261655
MTR6R6
METAR K6R6 261653Z AUTO 25012G18KT 31/M01 A2967 RMK AO1 SLP011
T03061006





000
SAUS44 KMAF 261655
MTR6R6
METAR K6R6 261653Z AUTO 25012G18KT 31/M01 A2967 RMK AO1 SLP011
T03061006





000
SAUS44 KMAF 261554
MTR6R6
METAR K6R6 261553Z AUTO 24012G20KT 29/01 A2970 RMK AO1 SLP021
T02890006





000
SAUS44 KMAF 261455
MTR6R6
METAR K6R6 261453Z AUTO 24013G19KT 26/04 A2971 RMK AO1 SLP026
T02610039 50005





000
SAUS44 KMAF 261354
MTR6R6
METAR K6R6 261353Z AUTO 27006KT 22/12 A2972 RMK AO1 SLP032 T02170117





000
SAUS44 KMAF 261354
MTR6R6
METAR K6R6 261353Z AUTO 27006KT 22/12 A2972 RMK AO1 SLP032 T02170117





000
SAUS44 KMAF 261254
MTR6R6
METAR K6R6 261253Z AUTO 30007KT 18/11 A2971 RMK AO1 SLP028 T01780111





000
SAUS44 KMAF 261254
MTR6R6
METAR K6R6 261253Z AUTO 30007KT 18/11 A2971 RMK AO1 SLP028 T01780111





000
SAUS44 KMAF 261154
MTR6R6
METAR K6R6 261153Z AUTO 26006KT 16/11 A2970 RMK AO1 SLP022 T01560106
10200 20150 53002





000
SAUS44 KMAF 261154
MTR6R6
METAR K6R6 261153Z AUTO 26006KT 16/11 A2970 RMK AO1 SLP022 T01560106
10200 20150 53002





000
SAUS44 KMAF 261054
MTR6R6
METAR K6R6 261053Z AUTO 34007KT 18/11 A2969 RMK AO1 SLP017 T01780111





000
SAUS44 KMAF 261054
MTR6R6
METAR K6R6 261053Z AUTO 34007KT 18/11 A2969 RMK AO1 SLP017 T01780111





000
SAUS44 KMAF 260954
MTR6R6
METAR K6R6 260953Z AUTO 36008KT 18/11 A2969 RMK AO1 SLP017 T01830111





000
SAUS44 KMAF 260854
MTR6R6
METAR K6R6 260853Z AUTO 02006KT 18/11 A2969 RMK AO1 SLP017 T01830106
58012





000
SAUS44 KMAF 260754
MTR6R6
METAR K6R6 260753Z AUTO 01005KT 19/11 A2970 RMK AO1 SLP022 T01890106





000
SAUS44 KMAF 260654
MTR6R6
METAR K6R6 260653Z AUTO 02005KT 18/11 A2971 RMK AO1 SLP028 T01830106





000
SAUS44 KMAF 260654
MTR6R6
METAR K6R6 260653Z AUTO 02005KT 18/11 A2971 RMK AO1 SLP028 T01830106





000
SAUS44 KMAF 260554
MTR6R6
METAR K6R6 260553Z AUTO 04006KT 19/11 A2973 RMK AO1 SLP032 T01940106
10328 20183 403280128 58003





000
SAUS44 KMAF 260554
MTR6R6
METAR K6R6 260553Z AUTO 04006KT 19/11 A2973 RMK AO1 SLP032 T01940106
10328 20183 403280128 58003





000
SAUS44 KMAF 260455
MTR6R6
METAR K6R6 260453Z AUTO 05006KT 20/11 A2974 RMK AO1 SLP036 T02000106





000
SAUS44 KMAF 260455
MTR6R6
METAR K6R6 260453Z AUTO 05006KT 20/11 A2974 RMK AO1 SLP036 T02000106





000
SAUS44 KMAF 260354
MTR6R6
METAR K6R6 260353Z AUTO 08004KT 21/11 A2974 RMK AO1 SLP038 T02110106





000
SAUS44 KMAF 260254
MTR6R6
METAR K6R6 260253Z AUTO 15006KT 23/10 A2974 RMK AO1 SLP037 T02330100
53007





000
SAUS44 KMAF 260154
MTR6R6
METAR K6R6 260153Z AUTO 00000KT 23/01 A2973 RMK AO1 SLP033 T02330011





000
SAUS44 KMAF 260054
MTR6R6
METAR K6R6 260053Z AUTO 18004KT 29/M01 A2972 RMK AO1 SLP030
T02941006





000
SAUS44 KMAF 252354
MTR6R6
METAR K6R6 252353Z AUTO 22012KT 32/M07 A2972 RMK AO1 SLP029
T03221072 10328 20294 56017





000
SAUS44 KMAF 252354
MTR6R6
METAR K6R6 252353Z AUTO 22012KT 32/M07 A2972 RMK AO1 SLP029
T03221072 10328 20294 56017





000
SAUS44 KMAF 252254
MTR6R6
METAR K6R6 252253Z AUTO 25009KT 33/M07 A2972 RMK AO1 SLP032
T03281072





000
SAUS44 KMAF 252254
MTR6R6
METAR K6R6 252253Z AUTO 25009KT 33/M07 A2972 RMK AO1 SLP032
T03281072





000
SAUS44 KMAF 252205 COR
MTRGDP
METAR KGDP 252151Z AUTO 25030G43KT 10SM CLR 23/M06 A2986 RMK AO2 PK
WND 25046/2140 SLP051 T02281056





000
SAUS44 KMAF 252205 COR
MTRGDP
METAR KGDP 252151Z AUTO 25030G43KT 10SM CLR 23/M06 A2986 RMK AO2 PK
WND 25046/2140 SLP051 T02281056





000
SAUS44 KMAF 252154
MTR6R6
METAR K6R6 252153Z AUTO 26015G19KT 33/M08 A2974 RMK AO1 SLP037
T03281078





000
SAUS44 KMAF 252054
MTR6R6
METAR K6R6 252053Z AUTO 23010G18KT 32/M08 A2977 RMK AO1 SLP047
T03221083 56031





000
SAUS44 KMAF 251954
MTR6R6
METAR K6R6 251953Z AUTO 24010G24KT 190V260 32/M07 A2980 RMK AO1
SLP057 T03171072





000
SAUS44 KMAF 251954
MTR6R6
METAR K6R6 251953Z AUTO 24010G24KT 190V260 32/M07 A2980 RMK AO1
SLP057 T03171072





000
SAUS44 KMAF 251854
MTR6R6
METAR K6R6 251853Z AUTO 24009G20KT 31/M04 A2984 RMK AO1 SLP067
T03061039





000
SAUS44 KMAF 251754
MTR6R6
METAR K6R6 251753Z AUTO 24012G18KT 29/M03 A2987 RMK AO1 SLP080
T02891028 10300 20144 58015





000
SAUS44 KMAF 251754
MTR6R6
METAR K6R6 251753Z AUTO 24012G18KT 29/M03 A2987 RMK AO1 SLP080
T02891028 10300 20144 58015





000
SAUS44 KMAF 251654
MTR6R6
METAR K6R6 251653Z AUTO 21008KT 28/00 A2990 RMK AO1 SLP089 T02780000





000
SAUS44 KMAF 251554
MTR6R6
METAR K6R6 251553Z AUTO 22006KT 26/07 A2991 RMK AO1 SLP096 T02610067





000
SAUS44 KMAF 251454
MTR6R6
METAR K6R6 251453Z AUTO 22008KT 24/08 A2992 RMK AO1 SLP097 T02440078
51012





000
SAUS44 KMAF 251354
MTR6R6
METAR K6R6 251353Z AUTO 26006KT 22/03 A2991 RMK AO1 SLP095 T02220028





000
SAUS44 KMAF 251354
MTR6R6
METAR K6R6 251353Z AUTO 26006KT 22/03 A2991 RMK AO1 SLP095 T02220028





000
SAUS44 KMAF 251254
MTR6R6
METAR K6R6 251253Z AUTO 27007KT 17/03 A2989 RMK AO1 SLP091 T01670028





000
SAUS44 KMAF 251154
MTR6R6
METAR K6R6 251153Z AUTO 25008KT 15/04 A2988 RMK AO1 SLP086 T01500039
10211 20128 53008





000
SAUS44 KMAF 251154
MTR6R6
METAR K6R6 251153Z AUTO 25008KT 15/04 A2988 RMK AO1 SLP086 T01500039
10211 20128 53008





000
SAUS44 KMAF 251054
MTR6R6
METAR K6R6 251053Z AUTO 31009KT 14/05 A2986 RMK AO1 SLP080 T01440050





000
SAUS44 KMAF 251054
MTR6R6
METAR K6R6 251053Z AUTO 31009KT 14/05 A2986 RMK AO1 SLP080 T01440050





000
SAUS44 KMAF 250954
MTR6R6
METAR K6R6 250953Z AUTO 29007KT 15/12 A2986 RMK AO1 SLP079 T01500117





000
SAUS44 KMAF 250854
MTR6R6
METAR K6R6 250853Z AUTO 36008KT 17/14 A2985 RMK AO1 SLP077 T01670139
50003





000
SAUS44 KMAF 250754
MTR6R6
METAR K6R6 250753Z AUTO 04005KT 18/17 A2985 RMK AO1 SLP074 T01830167





000
SAUS44 KMAF 250654
MTR6R6
METAR K6R6 250653Z AUTO 36006KT 20/18 A2985 RMK AO1 SLP075 T02000183





000
SAUS44 KMAF 250555
MTR6R6
METAR K6R6 250553Z AUTO 03003KT 21/19 A2984 RMK AO1 SLP074 T02060189
10306 20206 403170189 51017





000
SAUS44 KMAF 250455
MTR6R6
METAR K6R6 250453Z AUTO 02004KT 21/18 A2983 RMK AO1 SLP069 T02060183





000
SAUS44 KMAF 250354
MTR6R6
METAR K6R6 250353Z AUTO 00000KT 22/18 A2983 RMK AO1 SLP069 T02170183





000
SAUS44 KMAF 250254
MTR6R6
METAR K6R6 250253Z AUTO 00000KT 24/19 A2979 RMK AO1 SLP055 T02390189
53017





000
SAUS44 KMAF 250254
MTR6R6
METAR K6R6 250253Z AUTO 00000KT 24/19 A2979 RMK AO1 SLP055 T02390189
53017





000
SAUS44 KMAF 250154
MTR6R6
METAR K6R6 250153Z AUTO 12005KT 25/12 A2974 RMK AO1 SLP039 T02500117





000
SAUS44 KMAF 250105 COR
MTRGDP
METAR KGDP 250051Z AUTO 25037G44KT 10SM CLR 17/M07 A2990 RMK AO2 PK
WND 26048/0017 SLP077 T01671067





000
SAUS44 KMAF 250105 COR
MTRGDP
METAR KGDP 250051Z AUTO 25037G44KT 10SM CLR 17/M07 A2990 RMK AO2 PK
WND 26048/0017 SLP077 T01671067





000
SAUS44 KMAF 250054
MTR6R6
METAR K6R6 250053Z AUTO 26003KT 29/08 A2973 RMK AO1 SLP033 T02940083





000
SAUS44 KMAF 242354
MTR6R6
METAR K6R6 242353Z AUTO 25007KT 30/08 A2974 RMK AO1 SLP035 T03000083
10317 20261 56008





000
SAUS44 KMAF 242354
MTR6R6
METAR K6R6 242353Z AUTO 25007KT 30/08 A2974 RMK AO1 SLP035 T03000083
10317 20261 56008





000
SAUS44 KMAF 242304 COR
MTRGDP
METAR KGDP 242251Z AUTO 25040G52KT 10SM CLR 19/M07 A2989 RMK AO2 PK
WND 24054/2239 SLP061 T01891072





000
SAUS44 KMAF 242304 COR
MTRGDP
METAR KGDP 242251Z AUTO 25040G52KT 10SM CLR 19/M07 A2989 RMK AO2 PK
WND 24054/2239 SLP061 T01891072





000
SAUS44 KMAF 242254
MTR6R6
METAR K6R6 242253Z AUTO 24005KT 30/09 A2974 RMK AO1 SLP038 T03000094





000
SAUS44 KMAF 242254
MTR6R6
METAR K6R6 242253Z AUTO 24005KT 30/09 A2974 RMK AO1 SLP038 T03000094





000
SAUS44 KMAF 242154
MTR6R6
METAR K6R6 242153Z AUTO 24011KT 31/09 A2975 RMK AO1 SLP040 T03060094





000
SAUS44 KMAF 242054
MTR6R6
METAR K6R6 242053Z AUTO 26013G20KT 30/10 A2976 RMK AO1 SLP044
T03000100 56017





000
SAUS44 KMAF 242054
MTR6R6
METAR K6R6 242053Z AUTO 26013G20KT 30/10 A2976 RMK AO1 SLP044
T03000100 56017





000
SAUS44 KMAF 241954
MTR6R6
METAR K6R6 241953Z AUTO 26017G23KT 32/10 A2977 RMK AO1 SLP046
T03170100





000
SAUS44 KMAF 241954
MTR6R6
METAR K6R6 241953Z AUTO 26017G23KT 32/10 A2977 RMK AO1 SLP046
T03170100





000
SAUS44 KMAF 241854
MTR6R6
METAR K6R6 241853Z AUTO 22014G19KT 29/14 A2979 RMK AO1 SLP053
T02940144





000
SAUS44 KMAF 241754
MTR6R6
METAR K6R6 241753Z AUTO 19007KT 26/15 A2982 RMK AO1 SLP065 T02610150
10267 20189 58012





000
SAUS44 KMAF 241654
MTR6R6
METAR K6R6 241653Z AUTO 00000KT 24/15 A2984 RMK AO1 SLP075 T02390150





000
SAUS44 KMAF 241654
MTR6R6
METAR K6R6 241653Z AUTO 00000KT 24/15 A2984 RMK AO1 SLP075 T02390150





000
SAUS44 KMAF 241554
MTR6R6
METAR K6R6 241553Z AUTO 13005KT 23/14 A2985 RMK AO1 SLP076 T02280144





000
SAUS44 KMAF 241508 COR
MTRGDP
METAR KGDP 241451Z AUTO 24021G32KT 10SM SCT043 BKN060 11/05 A2997
RMK AO2 PK WND 26033/1417 SLP099 60001 T01110050 53011





000
SAUS44 KMAF 241506 COR
MTRGDP
METAR KGDP 241451Z AUTO 24021G32KT 10SM SCT043 BKN060 11/05 A2997
RMK AO2 PK WND 26033/1417 SLP099 60001 T01110050 53011





000
SAUS44 KMAF 241505 COR
MTRGDP
METAR KGDP 241451Z AUTO 24021G32KT 10SM SCT043 BKN060 11/05 A2997
RMK AO2 PK WND 26033/1417 SLP099 60001 T01110050 53011





000
SAUS44 KMAF 241505 COR
MTRGDP
METAR KGDP 241451Z AUTO 24021G32KT 10SM SCT043 BKN060 11/05 A2997
RMK AO2 PK WND 26033/1417 SLP099 60001 T01110050 53011





000
SAUS44 KMAF 241455
MTR6R6
METAR K6R6 241453Z AUTO 14007KT 22/14 A2986 RMK AO1 SLP078 T02220139
57003





000
SAUS44 KMAF 241354
MTR6R6
METAR K6R6 241353Z AUTO 14003KT 20/14 A2986 RMK AO1 SLP079 T02000144





000
SAUS44 KMAF 241354
MTR6R6
METAR K6R6 241353Z AUTO 14003KT 20/14 A2986 RMK AO1 SLP079 T02000144





000
SAUS44 KMAF 241254
MTR6R6
METAR K6R6 241253Z AUTO 00000KT 19/15 A2986 RMK AO1 SLP080 T01940150





    US Dept of Commerce
    National Oceanic and Atmospheric Administration
    National Weather Service
    1325 East West Highway
    Silver Spring, MD 20910
    Page Author: NWS Internet Services Team
Disclaimer
Information Quality
Credits
Glossary
Privacy Policy
Freedom of Information Act (FOIA)
About Us
Career Opportunities